Decoded Metar for CYLW (KELOWNA in BC, CANADA) (IATA:YLW) | Meteo·Mobile Aviation Weather
aviador You're here:

CYLW Decoded Metar

KELOWNA in BC, CANADA
Report Time2018-11-21 01:00:00
UTC Time2018-11-21 01:30:57
Flight Rules vfr VFR
Wind030° at 02 kt
W.Decomp.*RWY 34: 1.7 kt HW 1.1 kt RCW
W.Rank030° ranks 15
Current wind is below 030° avg. (3.4)
Visibility9999 m
Phenomena:N/A
Clouds:N/A
Expected CloudBase > 800 ft AGL from Temp-Dew spread
CeilingNone
Temp00°C (ISA -12)
Dew Point-2°C (87% RH)
AAT-3.0°C
QNH1019 hPa
Density Alt-200 ft
Elevation1,411 ft
Report Wrong Elevation
Raw Report
CYLW 210100Z AUTO 03002KT 9SM CLR M00/M02 A3008 RMK SLP211=

Extra information for CYLW:More info

Metar Taf Metar & Taf Last 4 Metars F.Rules Stats Wind Profile Meteogram Temp Stats Airport Information Weather charts Add Link Nearby VenuesMetar ALERT Operation Metar Decoded Social comments